Aviation Digital Data Service (ADDS)

Output produced by METARs form (1811 UTC 14 August 2018)
found at http://www.aviationweather.gov/adds/metars/
 
TAF KIAB 141800Z 1418/1524 22009KT 8000 -SHRA VCTS SCT015 BKN020CB QNH2984INS 
     TEMPO 1420/1502 21015G25KT 4800 TSRA OVC015CB 
     BECMG 1504/1505 25009KT 9999 NSW BKN015 QNH2984INS 
     BECMG 1508/1509 30006KT 8000 BR BKN005 OVC040 QNH2986INS 
     BECMG 1514/1515 35012KT 9999 NSW SCT010 BKN040 QNH2990INS 
     BECMG 1520/1521 36009KT 9999 SCT040 QNH2988INS TX28/1420Z TN20/1512Z
       
KIAD 141720Z 1418/1524 28007KT P6SM VCTS SCT045CB BKN150 
     FM150000 31006KT P6SM SCT060 BKN120 
     FM152300 25004KT P6SM FEW070 SCT250
       
KIAG 141742Z 1418/1518 29007KT P6SM BKN110 
     FM142100 26010KT P6SM BKN200 
     FM150000 24008KT P6SM SCT060 
     FM151100 25007KT P6SM FEW250 
     FM151600 26012G18KT P6SM SCT060
       
KIAH 141723Z 1418/1524 17012KT P6SM SCT035 BKN250 
     FM142100 15013KT P6SM SCT045 SCT120 
     FM150200 16007KT P6SM SCT250 
     TEMPO 1514/1516 BKN025 
     FM151600 17007KT P6SM BKN035
       
KICT 141739Z 1418/1518 21008KT P6SM VCSH SCT015 BKN030 
     FM142000 23008KT P6SM VCTS SCT020 BKN035CB 
     FM150100 26005KT P6SM VCSH SCT020 BKN035 
     FM150500 33007KT 5SM BR SCT009 BKN015
       
KIDA 141730Z 1418/1518 22010KT P6SM SKC 
     FM142100 22010G20KT P6SM SKC 
     FM150200 17006KT P6SM FEW200
       
KIFP 141733Z 1418/1518 19012KT P6SM FEW150 
     FM150500 16010G16KT P6SM FEW150 
     FM150600 VRB05KT P6SM FEW150 
     FM151400 18011KT P6SM BKN250
       
KILG 141748Z 1418/1518 27011KT P6SM VCTS SCT035CB BKN060 
     TEMPO 1418/1422 6SM -SHRA BKN035 
     FM142200 28008KT P6SM VCTS SCT030 BKN050CB 
     TEMPO 1500/1502 4SM -SHRA BKN030 
     FM150200 27005KT P6SM SCT040 BKN090
       
KILM 141739Z 1418/1518 20010G15KT P6SM VCTS FEW020 SCT030CB BKN060 
     TEMPO 1421/1501 VRB20G35KT 3SM TSRA BR SCT010 BKN025CB OVC040 
     FM150300 22005KT P6SM SCT250
       
KILN 141737Z 1418/1518 27007KT P6SM SCT050 
     FM150100 VRB02KT P6SM SCT250 
     TEMPO 1510/1514 00000KT 4SM BR 
     FM151600 22012KT P6SM BKN250
       
KIND 141720Z 1418/1524 24007KT P6SM SCT045 
     FM150000 VRB04KT P6SM SCT250 
     FM151500 19007KT P6SM BKN040 
     FM151800 20009KT 6SM -SHRA BKN035
       
TAF KINS 141501Z 1415/1521 VRB06KT 9999 FEW150 QNH2993INS 
     BECMG 1417/1418 13009KT 9999 FEW150 QNH2989INS 
     BECMG 1420/1421 21012KT 9999 FEW150 SCT200 QNH2985INS TS OMTNS S 
     TEMPO 1423/1503 VRB15G25KT VCTS SCT100CB 
     BECMG 1505/1506 VRB06KT 9999 FEW100 SCT200 QNH2989INS TX40/1421Z TN23/1512Z
       
KINT 141738Z 1418/1518 VRB05KT P6SM FEW035 FEW100 
     FM142000 VRB05KT P6SM BKN040 
     FM150000 VRB02KT P6SM FEW050
       
KINW 141730Z 1418/1518 VRB06KT P6SM SCT120
       
KIPL 141739Z 1418/1518 16010KT P6SM FEW120
       
KIPT 141742Z 1418/1518 27010KT P6SM VCSH SCT021 BKN030 
     FM141900 27006KT P6SM -SHRA SCT030 BKN050 
     FM150500 VRB04KT 5SM BR SCT250 
     FM151500 27006KT P6SM SCT250
       
KISM 141740Z 1418/1518 20008KT P6SM SCT040 SCT250 
     FM142000 18008KT P6SM VCTS SCT045CB SCT080 BKN250 
     TEMPO 1420/1423 2SM TSRA BKN030CB BKN060 
     FM150100 18005KT P6SM FEW040 SCT100 BKN250 
     FM151400 16005KT P6SM SCT025
       
KISN 141726Z 1418/1518 17008KT P6SM FEW250
       
KISO 141739Z 1418/1518 23004KT P6SM VCTS SCT035CB 
     TEMPO 1418/1419 VRB10G20KT 3SM TSRA BKN015CB 
     FM150000 VRB02KT P6SM FEW250 
     FM151400 25003KT P6SM SKC AMD LTD TO CLD VIS AND WIND
       
KISP 141732Z 1418/1518 18010KT P6SM SCT040 SCT150 
     FM142100 19010KT P6SM SHRA SCT040 
     TEMPO 1422/1424 TSRA BKN040CB 
     FM150100 23008KT P6SM VCSH SCT040 BKN100 
     FM150800 28008KT P6SM SCT050 BKN250 
     FM151400 28010KT P6SM SCT050 SCT250
       
KITH 141723Z 1418/1518 30007KT P6SM SCT008 OVC025 
     TEMPO 1418/1422 3SM SHRA BR OVC008 
     FM142200 32005KT P6SM BKN025 
     FM150300 VRB03KT P6SM BKN035 
     FM150900 VRB03KT 5SM BR BKN015 
     FM151300 29010KT P6SM BKN040
       
KIWA 141739Z 1418/1518 VRB04KT P6SM FEW100 SCT180 
     FM142100 25010G16KT P6SM FEW120 SCT180 
     FM150300 05020G30KT P6SM VCTS SCT080CB BKN120 OVC180 
     FM150700 16010KT 5SM BLDU VCSH FEW080 BKN120 OVC200
       
KIXD 141725Z 1418/1518 18007KT P6SM -SHRA BKN025 
     TEMPO 1418/1420 SCT025 
     FM142000 18008KT P6SM VCSH FEW030 BKN050 
     FM150000 20005KT 6SM -SHRA VCTS OVC035CB 
     FM150500 12005KT P6SM BKN050 
     FM150900 VRB05KT P6SM BKN015 
     FM151200 VRB05KT P6SM BKN008